sensor_id;sensor_type;location;lat;lon;timestamp;pressure;altitude;pressure_sealevel;temperature;humidity
57606;BME280;43430;48.204;11.556;2023-01-24T00:00:25;97312.31;;;-0.55;100.00
57606;BME280;43430;48.204;11.556;2023-01-24T00:02:50;97313.47;;;-0.59;100.00
57606;BME280;43430;48.204;11.556;2023-01-24T00:05:15;97319.03;;;-0.63;100.00
57606;BME280;43430;48.204;11.556;2023-01-24T00:07:41;97322.44;;;-0.63;100.00
57606;BME280;43430;48.204;11.556;2023-01-24T00:10:07;97325.97;;;-0.64;100.00
57606;BME280;43430;48.204;11.556;2023-01-24T00:12:32;97326.94;;;-0.65;100.00
57606;BME280;43430;48.204;11.556;2023-01-24T00:14:58;97331.41;;;-0.67;100.00
57606;BME280;43430;48.204;11.556;2023-01-24T00:17:23;97327.03;;;-0.66;100.00
57606;BME280;43430;48.204;11.556;2023-01-24T00:19:49;97325.16;;;-0.64;100.00
57606;BME280;43430;48.204;11.556;2023-01-24T00:22:14;97329.03;;;-0.70;100.00
57606;BME280;43430;48.204;11.556;2023-01-24T00:24:40;97331.41;;;-0.67;100.00
57606;BME280;43430;48.204;11.556;2023-01-24T00:27:05;97329.63;;;-0.66;100.00
57606;BME280;43430;48.204;11.556;2023-01-24T00:29:31;97325.63;;;-0.70;100.00
57606;BME280;43430;48.204;11.556;2023-01-24T00:31:56;97328.09;;;-0.69;100.00
57606;BME280;43430;48.204;11.556;2023-01-24T00:34:22;97327.84;;;-0.66;100.00
57606;BME280;43430;48.204;11.556;2023-01-24T00:36:47;97324.56;;;-0.68;100.00
57606;BME280;43430;48.204;11.556;2023-01-24T00:39:12;97323.63;;;-0.67;100.00
57606;BME280;43430;48.204;11.556;2023-01-24T00:41:38;97325.75;;;-0.61;100.00
57606;BME280;43430;48.204;11.556;2023-01-24T00:44:03;97336.22;;;-0.62;100.00
57606;BME280;43430;48.204;11.556;2023-01-24T00:46:29;97333.16;;;-0.67;100.00
57606;BME280;43430;48.204;11.556;2023-01-24T00:48:54;97333.25;;;-0.69;100.00
57606;BME280;43430;48.204;11.556;2023-01-24T00:51:20;97339.28;;;-0.68;100.00
57606;BME280;43430;48.204;11.556;2023-01-24T00:53:45;97338.94;;;-0.64;100.00
57606;BME280;43430;48.204;11.556;2023-01-24T00:56:10;97338.94;;;-0.64;100.00
57606;BME280;43430;48.204;11.556;2023-01-24T00:58:36;97350.47;;;-0.68;100.00
57606;BME280;43430;48.204;11.556;2023-01-24T01:01:01;97341.53;;;-0.64;100.00
57606;BME280;43430;48.204;11.556;2023-01-24T01:03:29;97352.47;;;-0.60;100.00
57606;BME280;43430;48.204;11.556;2023-01-24T01:06:05;97351.66;;;-0.61;100.00
57606;BME280;43430;48.204;11.556;2023-01-24T01:08:32;97352.25;;;-0.68;100.00
57606;BME280;43430;48.204;11.556;2023-01-24T01:10:57;97348.94;;;-0.70;100.00
57606;BME280;43430;48.204;11.556;2023-01-24T01:13:24;97347.75;;;-0.66;100.00
57606;BME280;43430;48.204;11.556;2023-01-24T01:15:50;97346.69;;;-0.64;100.00
57606;BME280;43430;48.204;11.556;2023-01-24T01:18:15;97345.75;;;-0.63;100.00
57606;BME280;43430;48.204;11.556;2023-01-24T01:20:40;97351.88;;;-0.64;100.00
57606;BME280;43430;48.204;11.556;2023-01-24T01:23:06;97343.16;;;-0.63;100.00
57606;BME280;43430;48.204;11.556;2023-01-24T01:25:31;97346.69;;;-0.64;100.00
57606;BME280;43430;48.204;11.556;2023-01-24T01:27:57;97348.09;;;-0.60;100.00
57606;BME280;43430;48.204;11.556;2023-01-24T01:30:22;97345.75;;;-0.63;100.00
57606;BME280;43430;48.204;11.556;2023-01-24T01:32:47;97346.69;;;-0.64;100.00
57606;BME280;43430;48.204;11.556;2023-01-24T01:35:13;97345.16;;;-0.66;100.00
57606;BME280;43430;48.204;11.556;2023-01-24T01:37:38;97345.28;;;-0.68;100.00
57606;BME280;43430;48.204;11.556;2023-01-24T01:40:05;97343.38;;;-0.66;100.00
57606;BME280;43430;48.204;11.556;2023-01-24T01:42:43;97343.63;;;-0.69;100.00
57606;BME280;43430;48.204;11.556;2023-01-24T01:48:04;97339.41;;;-0.70;100.00
57606;BME280;43430;48.204;11.556;2023-01-24T01:50:39;97352.94;;;-0.66;100.00
57606;BME280;43430;48.204;11.556;2023-01-24T01:53:06;97342.69;;;-0.68;100.00
57606;BME280;43430;48.204;11.556;2023-01-24T01:55:33;97346.56;;;-0.62;100.00
57606;BME280;43430;48.204;11.556;2023-01-24T01:58:03;97350.00;;;-0.62;100.00
57606;BME280;43430;48.204;11.556;2023-01-24T02:00:28;97355.19;;;-0.62;100.00
57606;BME280;43430;48.204;11.556;2023-01-24T02:02:57;97358.00;;;-0.65;100.00
57606;BME280;43430;48.204;11.556;2023-01-24T02:05:45;97358.69;;;-0.63;100.00
57606;BME280;43430;48.204;11.556;2023-01-24T02:08:13;97357.28;;;-0.67;100.00
57606;BME280;43430;48.204;11.556;2023-01-24T02:10:41;97354.47;;;-0.64;100.00
57606;BME280;43430;48.204;11.556;2023-01-24T02:13:25;97356.59;;;-0.58;100.00
57606;BME280;43430;48.204;11.556;2023-01-24T02:15:52;97353.88;;;-0.56;100.00
57606;BME280;43430;48.204;11.556;2023-01-24T02:18:27;97356.59;;;-0.58;100.00
57606;BME280;43430;48.204;11.556;2023-01-24T02:20:53;97347.41;;;-0.62;100.00
57606;BME280;43430;48.204;11.556;2023-01-24T02:23:24;97352.47;;;-0.60;100.00
57606;BME280;43430;48.204;11.556;2023-01-24T02:28:44;97342.69;;;-0.57;100.00
57606;BME280;43430;48.204;11.556;2023-01-24T02:31:10;97342.09;;;-0.60;100.00
57606;BME280;43430;48.204;11.556;2023-01-24T02:33:36;97347.28;;;-0.60;100.00
57606;BME280;43430;48.204;11.556;2023-01-24T02:38:45;97341.06;;;-0.58;100.00
57606;BME280;43430;48.204;11.556;2023-01-24T02:41:11;97348.94;;;-0.59;100.00
57606;BME280;43430;48.204;11.556;2023-01-24T02:43:44;97340.22;;;-0.58;100.00
57606;BME280;43430;48.204;11.556;2023-01-24T02:46:11;97340.81;;;-0.66;100.00
57606;BME280;43430;48.204;11.556;2023-01-24T02:48:37;97341.28;;;-0.61;100.00
57606;BME280;43430;48.204;11.556;2023-01-24T02:51:02;97339.16;;;-0.67;100.00
57606;BME280;43430;48.204;11.556;2023-01-24T02:53:46;97337.16;;;-0.63;100.00
57606;BME280;43430;48.204;11.556;2023-01-24T02:56:12;97333.88;;;-0.65;100.00
57606;BME280;43430;48.204;11.556;2023-01-24T02:58:55;97334.94;;;-0.68;100.00
57606;BME280;43430;48.204;11.556;2023-01-24T03:01:22;97338.22;;;-0.66;100.00
57606;BME280;43430;48.204;11.556;2023-01-24T03:03:49;97333.75;;;-0.64;100.00
57606;BME280;43430;48.204;11.556;2023-01-24T03:06:16;97341.53;;;-0.64;100.00
57606;BME280;43430;48.204;11.556;2023-01-24T03:08:43;97334.19;;;-0.59;100.00
57606;BME280;43430;48.204;11.556;2023-01-24T03:11:10;97338.56;;;-0.59;100.00
57606;BME280;43430;48.204;11.556;2023-01-24T03:13:36;97340.91;;;-0.56;100.00
57606;BME280;43430;48.204;11.556;2023-01-24T03:16:20;97339.97;;;-0.55;100.00
57606;BME280;43430;48.204;11.556;2023-01-24T03:19:04;97341.88;;;-0.57;100.00
57606;BME280;43430;48.204;11.556;2023-01-24T03:21:49;97339.66;;;-0.62;100.00
57606;BME280;43430;48.204;11.556;2023-01-24T03:24:33;97350.69;;;-0.60;100.00
57606;BME280;43430;48.204;11.556;2023-01-24T03:27:17;97350.59;;;-0.58;100.00
57606;BME280;43430;48.204;11.556;2023-01-24T03:30:03;97347.53;;;-0.63;100.00
57606;BME280;43430;48.204;11.556;2023-01-24T03:32:48;97360.38;;;-0.62;100.00
57606;BME280;43430;48.204;11.556;2023-01-24T03:35:32;97351.88;;;-0.64;100.00
57606;BME280;43430;48.204;11.556;2023-01-24T03:37:58;97357.66;;;-0.60;100.00
57606;BME280;43430;48.204;11.556;2023-01-24T03:40:42;97366.97;;;-0.58;100.00
57606;BME280;43430;48.204;11.556;2023-01-24T03:43:08;97359.06;;;-0.56;100.00
57606;BME280;43430;48.204;11.556;2023-01-24T03:45:38;97368.59;;;-0.57;100.00
57606;BME280;43430;48.204;11.556;2023-01-24T03:48:06;97358.47;;;-0.60;100.00
57606;BME280;43430;48.204;11.556;2023-01-24T03:50:39;97366.38;;;-0.61;100.00
57606;BME280;43430;48.204;11.556;2023-01-24T03:53:26;97373.31;;;-0.62;100.00
57606;BME280;43430;48.204;11.556;2023-01-24T03:55:54;97375.66;;;-0.59;100.00
57606;BME280;43430;48.204;11.556;2023-01-24T03:58:20;97376.25;;;-0.55;100.00
57606;BME280;43430;48.204;11.556;2023-01-24T04:00:46;97376.00;;;-0.63;100.00
57606;BME280;43430;48.204;11.556;2023-01-24T04:03:11;97378.97;;;-0.57;100.00
57606;BME280;43430;48.204;11.556;2023-01-24T04:05:36;97388.16;;;-0.64;100.00
57606;BME280;43430;48.204;11.556;2023-01-24T04:08:03;97377.31;;;-0.58;100.00
57606;BME280;43430;48.204;11.556;2023-01-24T04:10:29;97380.38;;;-0.64;100.00
57606;BME280;43430;48.204;11.556;2023-01-24T04:12:55;97379.66;;;-0.66;100.00
57606;BME280;43430;48.204;11.556;2023-01-24T04:15:24;97373.66;;;-0.66;100.00
57606;BME280;43430;48.204;11.556;2023-01-24T04:17:50;97376.16;;;-0.65;100.00
57606;BME280;43430;48.204;11.556;2023-01-24T04:20:16;97378.00;;;-0.67;100.00
57606;BME280;43430;48.204;11.556;2023-01-24T04:22:42;97367.44;;;-0.64;100.00
57606;BME280;43430;48.204;11.556;2023-01-24T04:25:08;97370.00;;;-0.64;100.00
57606;BME280;43430;48.204;11.556;2023-01-24T04:27:35;97370.47;;;-0.59;100.00
57606;BME280;43430;48.204;11.556;2023-01-24T04:30:02;97368.13;;;-0.62;100.00
57606;BME280;43430;48.204;11.556;2023-01-24T04:32:28;97372.38;;;-0.61;100.00
57606;BME280;43430;48.204;11.556;2023-01-24T04:34:53;97363.41;;;-0.57;100.00
57606;BME280;43430;48.204;11.556;2023-01-24T04:37:19;97363.56;;;-0.58;100.00
57606;BME280;43430;48.204;11.556;2023-01-24T04:39:44;97362.59;;;-0.57;100.00
57606;BME280;43430;48.204;11.556;2023-01-24T04:42:09;97366.00;;;-0.57;100.00
57606;BME280;43430;48.204;11.556;2023-01-24T04:44:35;97364.13;;;-0.55;100.00
57606;BME280;43430;48.204;11.556;2023-01-24T04:47:00;97363.78;;;-0.50;100.00
57606;BME280;43430;48.204;11.556;2023-01-24T04:49:25;97365.06;;;-0.56;100.00
57606;BME280;43430;48.204;11.556;2023-01-24T04:51:51;97364.59;;;-0.50;100.00
57606;BME280;43430;48.204;11.556;2023-01-24T04:54:17;97368.72;;;-0.47;100.00
57606;BME280;43430;48.204;11.556;2023-01-24T04:56:42;97373.91;;;-0.47;100.00
57606;BME280;43430;48.204;11.556;2023-01-24T04:59:11;97365.53;;;-0.51;100.00
57606;BME280;43430;48.204;11.556;2023-01-24T05:01:36;97369.09;;;-0.52;100.00
57606;BME280;43430;48.204;11.556;2023-01-24T05:04:02;97370.97;;;-0.54;100.00
57606;BME280;43430;48.204;11.556;2023-01-24T05:06:29;97375.53;;;-0.46;100.00
57606;BME280;43430;48.204;11.556;2023-01-24T05:08:55;97382.03;;;-0.52;100.00
57606;BME280;43430;48.204;11.556;2023-01-24T05:11:20;97374.97;;;-0.50;100.00
57606;BME280;43430;48.204;11.556;2023-01-24T05:13:46;97372.50;;;-0.51;100.00
57606;BME280;43430;48.204;11.556;2023-01-24T05:16:11;97377.53;;;-0.50;100.00
57606;BME280;43430;48.204;11.556;2023-01-24T05:18:38;97368.38;;;-0.54;100.00
57606;BME280;43430;48.204;11.556;2023-01-24T05:21:08;97371.19;;;-0.57;100.00
57606;BME280;43430;48.204;11.556;2023-01-24T05:23:34;97377.78;;;-0.53;100.00
57606;BME280;43430;48.204;11.556;2023-01-24T05:26:03;97374.50;;;-0.55;100.00
57606;BME280;43430;48.204;11.556;2023-01-24T05:28:29;97378.81;;;-0.55;100.00
57606;BME280;43430;48.204;11.556;2023-01-24T05:30:59;97376.59;;;-0.60;100.00
57606;BME280;43430;48.204;11.556;2023-01-24T05:33:24;97382.84;;;-0.51;100.00
57606;BME280;43430;48.204;11.556;2023-01-24T05:35:56;97386.84;;;-0.47;100.00
57606;BME280;43430;48.204;11.556;2023-01-24T05:38:22;97383.69;;;-0.51;100.00
57606;BME280;43430;48.204;11.556;2023-01-24T05:40:47;97388.38;;;-0.56;100.00
57606;BME280;43430;48.204;11.556;2023-01-24T05:43:12;97385.69;;;-0.54;100.00
57606;BME280;43430;48.204;11.556;2023-01-24T05:45:38;97387.22;;;-0.52;100.00
57606;BME280;43430;48.204;11.556;2023-01-24T05:48:03;97391.69;;;-0.54;100.00
57606;BME280;43430;48.204;11.556;2023-01-24T05:50:29;97395.47;;;-0.58;100.00
57606;BME280;43430;48.204;11.556;2023-01-24T05:52:55;97395.31;;;-0.56;100.00
57606;BME280;43430;48.204;11.556;2023-01-24T05:55:20;97402.63;;;-0.61;100.00
57606;BME280;43430;48.204;11.556;2023-01-24T05:57:45;97404.88;;;-0.57;100.00
57606;BME280;43430;48.204;11.556;2023-01-24T06:00:11;97401.31;;;-0.56;100.00
57606;BME280;43430;48.204;11.556;2023-01-24T06:02:37;97392.88;;;-0.58;100.00
57606;BME280;43430;48.204;11.556;2023-01-24T06:05:02;97400.50;;;-0.56;100.00
57606;BME280;43430;48.204;11.556;2023-01-24T06:07:27;97406.63;;;-0.57;100.00
57606;BME280;43430;48.204;11.556;2023-01-24T06:09:53;97403.09;;;-0.56;100.00
57606;BME280;43430;48.204;11.556;2023-01-24T06:12:18;97404.16;;;-0.47;100.00
57606;BME280;43430;48.204;11.556;2023-01-24T06:14:43;97411.47;;;-0.53;100.00
57606;BME280;43430;48.204;11.556;2023-01-24T06:17:09;97412.41;;;-0.54;100.00
57606;BME280;43430;48.204;11.556;2023-01-24T06:19:34;97415.34;;;-0.58;100.00
57606;BME280;43430;48.204;11.556;2023-01-24T06:24:42;97423.81;;;-0.56;100.00
57606;BME280;43430;48.204;11.556;2023-01-24T06:27:08;97415.22;;;-0.57;100.00
57606;BME280;43430;48.204;11.556;2023-01-24T06:29:34;97429.84;;;-0.44;100.00
57606;BME280;43430;48.204;11.556;2023-01-24T06:37:48;97433.38;;;-0.57;100.00
57606;BME280;43430;48.204;11.556;2023-01-24T06:40:16;97440.41;;;-0.59;100.00
57606;BME280;43430;48.204;11.556;2023-01-24T06:42:43;97436.53;;;-0.53;100.00
57606;BME280;43430;48.204;11.556;2023-01-24T06:45:09;97439.50;;;-0.58;100.00
57606;BME280;43430;48.204;11.556;2023-01-24T06:47:35;97448.19;;;-0.59;100.00
57606;BME280;43430;48.204;11.556;2023-01-24T06:50:00;97441.50;;;-0.61;100.00
57606;BME280;43430;48.204;11.556;2023-01-24T06:52:26;97447.13;;;-0.56;100.00
57606;BME280;43430;48.204;11.556;2023-01-24T06:54:51;97447.50;;;-0.50;100.00
57606;BME280;43430;48.204;11.556;2023-01-24T06:57:17;97449.72;;;-0.45;100.00
57606;BME280;43430;48.204;11.556;2023-01-24T06:59:42;97453.16;;;-0.44;100.00
57606;BME280;43430;48.204;11.556;2023-01-24T07:02:09;97459.63;;;-0.39;100.00
57606;BME280;43430;48.204;11.556;2023-01-24T07:04:35;97452.44;;;-0.46;100.00
57606;BME280;43430;48.204;11.556;2023-01-24T07:07:01;97453.03;;;-0.43;100.00
57606;BME280;43430;48.204;11.556;2023-01-24T07:09:27;97447.03;;;-0.43;100.00
57606;BME280;43430;48.204;11.556;2023-01-24T07:11:53;97461.88;;;-0.45;100.00
57606;BME280;43430;48.204;11.556;2023-01-24T07:14:21;97464.34;;;-0.44;100.00
57606;BME280;43430;48.204;11.556;2023-01-24T07:16:48;97462.13;;;-0.37;100.00
57606;BME280;43430;48.204;11.556;2023-01-24T07:19:17;97457.63;;;-0.35;100.00
57606;BME280;43430;48.204;11.556;2023-01-24T07:21:43;97457.19;;;-0.40;100.00
57606;BME280;43430;48.204;11.556;2023-01-24T07:24:14;97470.72;;;-0.37;100.00
57606;BME280;43430;48.204;11.556;2023-01-24T07:26:41;97466.13;;;-0.33;100.00
57606;BME280;43430;48.204;11.556;2023-01-24T07:29:06;97470.25;;;-0.31;100.00
57606;BME280;43430;48.204;11.556;2023-01-24T07:31:32;97469.19;;;-0.28;100.00
57606;BME280;43430;48.204;11.556;2023-01-24T07:33:57;97466.34;;;-0.25;100.00
57606;BME280;43430;48.204;11.556;2023-01-24T07:36:23;97466.59;;;-0.28;100.00
57606;BME280;43430;48.204;11.556;2023-01-24T07:38:52;97464.00;;;-0.28;100.00
57606;BME280;43430;48.204;11.556;2023-01-24T07:41:18;97471.69;;;-0.27;100.00
57606;BME280;43430;48.204;11.556;2023-01-24T07:43:43;97470.25;;;-0.19;100.00
57606;BME280;43430;48.204;11.556;2023-01-24T07:46:09;97472.50;;;-0.15;100.00
57606;BME280;43430;48.204;11.556;2023-01-24T07:48:34;97474.63;;;-0.20;100.00
57606;BME280;43430;48.204;11.556;2023-01-24T07:51:00;97474.63;;;-0.20;100.00
57606;BME280;43430;48.204;11.556;2023-01-24T07:53:25;97484.41;;;-0.23;100.00
57606;BME280;43430;48.204;11.556;2023-01-24T07:55:51;97491.47;;;-0.26;100.00
57606;BME280;43430;48.204;11.556;2023-01-24T07:58:16;97491.34;;;-0.24;100.00
57606;BME280;43430;48.204;11.556;2023-01-24T08:00:42;97496.88;;;-0.29;100.00
57606;BME280;43430;48.204;11.556;2023-01-24T08:03:09;97492.28;;;-0.25;100.00
57606;BME280;43430;48.204;11.556;2023-01-24T08:05:36;97496.78;;;-0.16;100.00
57606;BME280;43430;48.204;11.556;2023-01-24T08:08:02;97497.00;;;-0.19;100.00
57606;BME280;43430;48.204;11.556;2023-01-24T08:10:27;97495.94;;;-0.16;100.00
57606;BME280;43430;48.204;11.556;2023-01-24T08:12:54;97499.38;;;-0.16;100.00
57606;BME280;43430;48.204;11.556;2023-01-24T08:15:20;97500.06;;;-0.14;100.00
57606;BME280;43430;48.204;11.556;2023-01-24T08:17:45;97503.38;;;-0.12;100.00
57606;BME280;43430;48.204;11.556;2023-01-24T08:20:11;97498.91;;;-0.10;100.00
57606;BME280;43430;48.204;11.556;2023-01-24T08:22:40;97508.53;;;-0.01;100.00
57606;BME280;43430;48.204;11.556;2023-01-24T08:25:07;97496.31;;;0.02;100.00
57606;BME280;43430;48.204;11.556;2023-01-24T08:27:32;97500.75;;;-0.01;100.00
57606;BME280;43430;48.204;11.556;2023-01-24T08:29:58;97505.50;;;0.06;100.00
57606;BME280;43430;48.204;11.556;2023-01-24T08:32:23;97503.94;;;0.03;100.00
57606;BME280;43430;48.204;11.556;2023-01-24T08:34:49;97505.25;;;0.09;100.00
57606;BME280;43430;48.204;11.556;2023-01-24T08:37:14;97517.75;;;0.04;100.00
57606;BME280;43430;48.204;11.556;2023-01-24T08:39:40;97514.69;;;-0.02;100.00
57606;BME280;43430;48.204;11.556;2023-01-24T08:42:05;97510.31;;;-0.01;100.00
57606;BME280;43430;48.204;11.556;2023-01-24T08:44:31;97519.06;;;-0.02;100.00
57606;BME280;43430;48.204;11.556;2023-01-24T08:46:56;97521.75;;;-0.04;100.00
57606;BME280;43430;48.204;11.556;2023-01-24T08:49:22;97520.81;;;-0.03;100.00
57606;BME280;43430;48.204;11.556;2023-01-24T08:51:47;97516.22;;;0.01;100.00
57606;BME280;43430;48.204;11.556;2023-01-24T08:54:13;97518.72;;;0.14;100.00
57606;BME280;43430;48.204;11.556;2023-01-24T08:56:38;97518.94;;;0.11;100.00
57606;BME280;43430;48.204;11.556;2023-01-24T08:59:04;97523.88;;;0.03;100.00
57606;BME280;43430;48.204;11.556;2023-01-24T09:01:29;97525.88;;;-0.01;100.00
57606;BME280;43430;48.204;11.556;2023-01-24T09:03:54;97528.13;;;0.04;100.00
57606;BME280;43430;48.204;11.556;2023-01-24T09:06:21;97517.50;;;0.07;100.00
57606;BME280;43430;48.204;11.556;2023-01-24T09:08:47;97523.78;;;0.04;100.00
57606;BME280;43430;48.204;11.556;2023-01-24T09:11:12;97525.88;;;-0.01;100.00
57606;BME280;43430;48.204;11.556;2023-01-24T09:13:38;97536.97;;;0.12;100.00
57606;BME280;43430;48.204;11.556;2023-01-24T09:16:04;97532.13;;;0.08;100.00
57606;BME280;43430;48.204;11.556;2023-01-24T09:18:29;97538.84;;;0.10;100.00
57606;BME280;43430;48.204;11.556;2023-01-24T09:20:54;97543.69;;;0.04;100.00
57606;BME280;43430;48.204;11.556;2023-01-24T09:23:20;97538.25;;;0.07;100.00
57606;BME280;43430;48.204;11.556;2023-01-24T09:25:50;97552.06;;;0.07;100.00
57606;BME280;43430;48.204;11.556;2023-01-24T09:28:16;97546.97;;;0.17;100.00
57606;BME280;43430;48.204;11.556;2023-01-24T09:30:45;97544.88;;;0.11;100.00
57606;BME280;43430;48.204;11.556;2023-01-24T09:33:10;97546.97;;;0.06;100.00
57606;BME280;43430;48.204;11.556;2023-01-24T09:35:36;97546.88;;;0.07;100.00
57606;BME280;43430;48.204;11.556;2023-01-24T09:38:01;97553.56;;;-0.02;100.00
57606;BME280;43430;48.204;11.556;2023-01-24T09:40:34;97556.41;;;-0.05;100.00
57606;BME280;43430;48.204;11.556;2023-01-24T09:43:13;97551.22;;;-0.05;100.00
57606;BME280;43430;48.204;11.556;2023-01-24T09:45:49;97544.84;;;-0.01;100.00
57606;BME280;43430;48.204;11.556;2023-01-24T09:48:17;97547.56;;;0.09;100.00
57606;BME280;43430;48.204;11.556;2023-01-24T09:51:15;97554.88;;;0.04;100.00
57606;BME280;43430;48.204;11.556;2023-01-24T09:53:49;97559.84;;;0.07;100.00
57606;BME280;43430;48.204;11.556;2023-01-24T09:56:30;97551.56;;;0.13;100.00
57606;BME280;43430;48.204;11.556;2023-01-24T09:59:21;97547.47;;;0.22;100.00
57606;BME280;43430;48.204;11.556;2023-01-24T10:01:48;97557.34;;;0.17;100.00
57606;BME280;43430;48.204;11.556;2023-01-24T10:04:36;97548.06;;;0.14;100.00
57606;BME280;43430;48.204;11.556;2023-01-24T10:18:16;97553.00;;;0.29;100.00
57606;BME280;43430;48.204;11.556;2023-01-24T10:23:39;97556.41;;;0.29;100.00
57606;BME280;43430;48.204;11.556;2023-01-24T10:26:22;97554.78;;;0.28;100.00
57606;BME280;43430;48.204;11.556;2023-01-24T10:28:53;97553.47;;;0.22;100.00
57606;BME280;43430;48.204;11.556;2023-01-24T10:31:21;97553.00;;;0.29;100.00
57606;BME280;43430;48.204;11.556;2023-01-24T10:33:51;97552.53;;;0.35;100.00
57606;BME280;43430;48.204;11.556;2023-01-24T10:39:03;97553.09;;;0.27;100.00
57606;BME280;43430;48.204;11.556;2023-01-24T10:41:31;97552.78;;;0.32;100.00
57606;BME280;43430;48.204;11.556;2023-01-24T10:44:47;97559.22;;;0.37;100.00
57606;BME280;43430;48.204;11.556;2023-01-24T10:49:23;97549.34;;;0.42;100.00
57606;BME280;43430;48.204;11.556;2023-01-24T10:52:17;97550.41;;;0.40;100.00
57606;BME280;43430;48.204;11.556;2023-01-24T10:54:48;97542.38;;;0.43;100.00
57606;BME280;43430;48.204;11.556;2023-01-24T10:57:42;97546.59;;;0.44;100.00
57606;BME280;43430;48.204;11.556;2023-01-24T11:02:39;97535.41;;;0.43;100.00
57606;BME280;43430;48.204;11.556;2023-01-24T11:05:06;97536.81;;;0.47;100.00
57606;BME280;43430;48.204;11.556;2023-01-24T11:07:36;97528.44;;;0.55;100.00
57606;BME280;43430;48.204;11.556;2023-01-24T11:10:38;97533.66;;;0.55;100.00
57606;BME280;43430;48.204;11.556;2023-01-24T11:16:03;97535.50;;;0.64;100.00
57606;BME280;43430;48.204;11.556;2023-01-24T11:18:31;97529.63;;;0.62;100.00
57606;BME280;43430;48.204;11.556;2023-01-24T11:23:32;97527.59;;;0.66;100.00
57606;BME280;43430;48.204;11.556;2023-01-24T11:26:00;97524.19;;;0.65;100.00
57606;BME280;43430;48.204;11.556;2023-01-24T11:28:35;97523.72;;;0.60;100.00
57606;BME280;43430;48.204;11.556;2023-01-24T11:31:06;97522.06;;;0.59;100.00
57606;BME280;43430;48.204;11.556;2023-01-24T11:42:24;97518.19;;;0.42;100.00
57606;BME280;43430;48.204;11.556;2023-01-24T11:45:09;97517.81;;;0.47;100.00
57606;BME280;43430;48.204;11.556;2023-01-24T11:52:47;97510.88;;;0.47;100.00
57606;BME280;43430;48.204;11.556;2023-01-24T11:58:40;97516.56;;;0.30;100.00
57606;BME280;43430;48.204;11.556;2023-01-24T12:07:06;97514.78;;;0.42;100.00
57606;BME280;43430;48.204;11.556;2023-01-24T12:09:43;97502.84;;;0.51;100.00
57606;BME280;43430;48.204;11.556;2023-01-24T12:12:21;97506.38;;;0.50;100.00
57606;BME280;43430;48.204;11.556;2023-01-24T12:22:39;97494.09;;;0.63;100.00
57606;BME280;43430;48.204;11.556;2023-01-24T12:25:28;97488.91;;;0.63;100.00
57606;BME280;43430;48.204;11.556;2023-01-24T12:28:00;97488.56;;;0.56;100.00
57606;BME280;43430;48.204;11.556;2023-01-24T12:30:34;97486.56;;;0.60;100.00
57606;BME280;43430;48.204;11.556;2023-01-24T12:33:26;97482.75;;;0.64;100.00
57606;BME280;43430;48.204;11.556;2023-01-24T12:36:00;97483.13;;;0.59;100.00
57606;BME280;43430;48.204;11.556;2023-01-24T12:38:34;97481.56;;;0.68;100.00
57606;BME280;43430;48.204;11.556;2023-01-24T12:41:32;97481.91;;;0.75;100.00
57606;BME280;43430;48.204;11.556;2023-01-24T12:52:35;97467.97;;;0.76;100.00
57606;BME280;43430;48.204;11.556;2023-01-24T12:57:37;97456.41;;;0.68;100.00
57606;BME280;43430;48.204;11.556;2023-01-24T13:00:14;97461.69;;;0.78;100.00
57606;BME280;43430;48.204;11.556;2023-01-24T13:07:59;97460.78;;;0.68;100.00
57606;BME280;43430;48.204;11.556;2023-01-24T13:13:02;97456.19;;;0.71;100.00
57606;BME280;43430;48.204;11.556;2023-01-24T13:18:33;97453.22;;;0.76;100.00
57606;BME280;43430;48.204;11.556;2023-01-24T13:21:10;97457.00;;;0.72;100.00
57606;BME280;43430;48.204;11.556;2023-01-24T13:29:35;97457.72;;;0.74;100.00
57606;BME280;43430;48.204;11.556;2023-01-24T13:34:40;97456.72;;;0.86;100.00
57606;BME280;43430;48.204;11.556;2023-01-24T13:37:15;97455.59;;;0.79;100.00
57606;BME280;43430;48.204;11.556;2023-01-24T13:39:41;97464.78;;;0.72;100.00
57606;BME280;43430;48.204;11.556;2023-01-24T13:42:25;97464.53;;;0.75;100.00
57606;BME280;43430;48.204;11.556;2023-01-24T13:44:56;97466.91;;;0.78;100.00
57606;BME280;43430;48.204;11.556;2023-01-24T13:47:24;97471.59;;;0.84;100.00
57606;BME280;43430;48.204;11.556;2023-01-24T13:55:58;97469.13;;;0.83;100.00
57606;BME280;43430;48.204;11.556;2023-01-24T14:00:52;97478.69;;;0.82;100.00
57606;BME280;43430;48.204;11.556;2023-01-24T14:03:32;97472.22;;;0.77;100.00
57606;BME280;43430;48.204;11.556;2023-01-24T14:24:36;97484.09;;;0.90;100.00
57606;BME280;43430;48.204;11.556;2023-01-24T14:27:25;97489.16;;;0.92;100.00
57606;BME280;43430;48.204;11.556;2023-01-24T14:35:21;97494.78;;;0.76;100.00
57606;BME280;43430;48.204;11.556;2023-01-24T14:37:49;97498.28;;;0.75;100.00
57606;BME280;43430;48.204;11.556;2023-01-24T14:40:26;97503.97;;;0.80;100.00
57606;BME280;43430;48.204;11.556;2023-01-24T14:43:02;97500.66;;;0.78;100.00
57606;BME280;43430;48.204;11.556;2023-01-24T14:45:30;97509.25;;;0.79;100.00
57606;BME280;43430;48.204;11.556;2023-01-24T14:47:57;97506.56;;;0.80;100.00
57606;BME280;43430;48.204;11.556;2023-01-24T14:50:31;97499.97;;;0.76;100.00
57606;BME280;43430;48.204;11.556;2023-01-24T14:52:58;97515.16;;;0.81;100.00
57606;BME280;43430;48.204;11.556;2023-01-24T14:55:37;97526.16;;;0.73;100.00
57606;BME280;43430;48.204;11.556;2023-01-24T14:58:15;97525.78;;;0.78;100.00
57606;BME280;43430;48.204;11.556;2023-01-24T15:00:42;97538.53;;;0.81;100.00
57606;BME280;43430;48.204;11.556;2023-01-24T15:03:14;97532.50;;;0.80;100.00
57606;BME280;43430;48.204;11.556;2023-01-24T15:05:40;97534.16;;;0.81;100.00
57606;BME280;43430;48.204;11.556;2023-01-24T15:08:12;97539.59;;;0.78;100.00
57606;BME280;43430;48.204;11.556;2023-01-24T15:10:40;97542.31;;;0.77;100.00